sensor_id;sensor_type;location;lat;lon;timestamp;pressure;altitude;pressure_sealevel;temperature;humidity
22181;BME280;11256;50.830;12.834;2023-11-18T00:03:04;98213.09;;;5.36;74.83
22181;BME280;11256;50.830;12.834;2023-11-18T00:08:05;98218.56;;;5.29;74.81
22181;BME280;11256;50.830;12.834;2023-11-18T00:13:06;98229.78;;;5.38;74.97
22181;BME280;11256;50.830;12.834;2023-11-18T00:18:07;98232.81;;;5.30;74.84
22181;BME280;11256;50.830;12.834;2023-11-18T00:23:07;98249.63;;;5.37;75.08
22181;BME280;11256;50.830;12.834;2023-11-18T00:28:07;98246.84;;;5.32;74.93
22181;BME280;11256;50.830;12.834;2023-11-18T00:33:08;98259.94;;;5.40;74.89
22181;BME280;11256;50.830;12.834;2023-11-18T00:38:08;98247.88;;;5.31;75.18
22181;BME280;11256;50.830;12.834;2023-11-18T00:43:10;98249.75;;;5.30;75.38
22181;BME280;11256;50.830;12.834;2023-11-18T00:48:10;98266.59;;;5.37;75.47
22181;BME280;11256;50.830;12.834;2023-11-18T00:53:11;98266.47;;;5.44;75.62
22181;BME280;11256;50.830;12.834;2023-11-18T00:58:11;98264.25;;;5.41;75.42
22181;BME280;11256;50.830;12.834;2023-11-18T01:03:11;98274.41;;;5.39;74.76
22181;BME280;11256;50.830;12.834;2023-11-18T01:08:12;98266.59;;;5.37;75.24
22181;BME280;11256;50.830;12.834;2023-11-18T01:13:13;98264.25;;;5.41;74.86
22181;BME280;11256;50.830;12.834;2023-11-18T01:18:13;98273.00;;;5.36;75.27
22181;BME280;11256;50.830;12.834;2023-11-18T01:23:15;98274.88;;;5.36;75.07
22181;BME280;11256;50.830;12.834;2023-11-18T01:28:15;98265.50;;;5.27;75.37
22181;BME280;11256;50.830;12.834;2023-11-18T01:33:16;98278.63;;;5.35;75.55
22181;BME280;11256;50.830;12.834;2023-11-18T01:38:16;98278.63;;;5.35;75.48
22181;BME280;11256;50.830;12.834;2023-11-18T01:43:16;98271.25;;;5.30;75.17
22181;BME280;11256;50.830;12.834;2023-11-18T01:48:17;98266.56;;;5.26;75.10
22181;BME280;11256;50.830;12.834;2023-11-18T01:53:18;98283.38;;;5.33;75.56
22181;BME280;11256;50.830;12.834;2023-11-18T01:58:19;98279.91;;;5.32;75.10
22181;BME280;11256;50.830;12.834;2023-11-18T02:03:20;98291.44;;;5.33;75.29
22181;BME280;11256;50.830;12.834;2023-11-18T02:08:20;98295.19;;;5.32;75.39
22181;BME280;11256;50.830;12.834;2023-11-18T02:13:22;98291.44;;;5.33;75.05
22181;BME280;11256;50.830;12.834;2023-11-18T02:18:29;98300.56;;;5.32;75.41
22181;BME280;11256;50.830;12.834;2023-11-18T02:23:29;98289.25;;;5.30;75.29
22181;BME280;11256;50.830;12.834;2023-11-18T02:28:29;98301.19;;;5.34;74.99
22181;BME280;11256;50.830;12.834;2023-11-18T02:33:54;98308.63;;;5.32;75.52
22181;BME280;11256;50.830;12.834;2023-11-18T02:38:59;98308.97;;;5.24;75.02
22181;BME280;11256;50.830;12.834;2023-11-18T02:44:03;98308.97;;;5.24;75.21
22181;BME280;11256;50.830;12.834;2023-11-18T02:49:08;98308.84;;;5.19;75.05
22181;BME280;11256;50.830;12.834;2023-11-18T02:54:09;98321.81;;;5.22;75.04
22181;BME280;11256;50.830;12.834;2023-11-18T02:59:10;98316.44;;;5.22;75.29
22181;BME280;11256;50.830;12.834;2023-11-18T03:04:11;98304.66;;;5.23;75.40
22181;BME280;11256;50.830;12.834;2023-11-18T03:09:14;98315.50;;;5.28;75.71
22181;BME280;11256;50.830;12.834;2023-11-18T03:14:15;98325.09;;;5.24;75.08
22181;BME280;11256;50.830;12.834;2023-11-18T03:19:16;98314.34;;;5.24;74.84
22181;BME280;11256;50.830;12.834;2023-11-18T03:24:16;98319.72;;;5.24;75.04
22181;BME280;11256;50.830;12.834;2023-11-18T03:29:16;98325.09;;;5.24;74.98
22181;BME280;11256;50.830;12.834;2023-11-18T03:34:17;98329.88;;;5.22;75.26
22181;BME280;11256;50.830;12.834;2023-11-18T03:39:20;98334.66;;;5.20;74.96
22181;BME280;11256;50.830;12.834;2023-11-18T03:44:21;98342.16;;;5.18;75.39
22181;BME280;11256;50.830;12.834;2023-11-18T03:49:21;98345.84;;;5.17;75.02
22181;BME280;11256;50.830;12.834;2023-11-18T03:54:22;98339.78;;;5.10;75.34
22181;BME280;11256;50.830;12.834;2023-11-18T03:59:22;98344.22;;;5.16;75.61
22181;BME280;11256;50.830;12.834;2023-11-18T04:04:22;98359.06;;;5.18;75.31
22181;BME280;11256;50.830;12.834;2023-11-18T04:09:23;98351.84;;;5.19;75.21
22181;BME280;11256;50.830;12.834;2023-11-18T04:14:23;98348.88;;;5.09;75.30
22181;BME280;11256;50.830;12.834;2023-11-18T04:19:23;98362.56;;;5.19;75.51
22181;BME280;11256;50.830;12.834;2023-11-18T04:24:24;98362.81;;;5.17;75.33
22181;BME280;11256;50.830;12.834;2023-11-18T04:29:24;98364.66;;;5.17;75.02
22181;BME280;11256;50.830;12.834;2023-11-18T04:34:24;98365.13;;;5.14;75.15
22181;BME280;11256;50.830;12.834;2023-11-18T04:39:26;98376.94;;;5.13;75.58
22181;BME280;11256;50.830;12.834;2023-11-18T04:44:28;98377.72;;;5.13;75.50
22181;BME280;11256;50.830;12.834;2023-11-18T04:49:31;98378.66;;;5.07;75.34
22181;BME280;11256;50.830;12.834;2023-11-18T04:54:32;98376.94;;;5.13;75.79
22181;BME280;11256;50.830;12.834;2023-11-18T04:59:32;98372.00;;;5.10;75.99
22181;BME280;11256;50.830;12.834;2023-11-18T05:04:32;98388.72;;;5.12;75.56
22181;BME280;11256;50.830;12.834;2023-11-18T05:09:33;98374.25;;;5.13;75.24
22181;BME280;11256;50.830;12.834;2023-11-18T05:14:34;98379.00;;;5.11;75.64
22181;BME280;11256;50.830;12.834;2023-11-18T05:19:35;98369.44;;;5.15;75.60
22181;BME280;11256;50.830;12.834;2023-11-18T05:24:36;98356.34;;;5.07;75.70
22181;BME280;11256;50.830;12.834;2023-11-18T05:29:36;98373.63;;;5.11;75.28
22181;BME280;11256;50.830;12.834;2023-11-18T05:34:37;98370.94;;;5.11;75.82
22181;BME280;11256;50.830;12.834;2023-11-18T05:39:38;98351.88;;;5.01;75.34
22181;BME280;11256;50.830;12.834;2023-11-18T05:44:44;98371.19;;;5.09;75.44
22181;BME280;11256;50.830;12.834;2023-11-18T05:49:44;98381.03;;;5.15;75.71
22181;BME280;11256;50.830;12.834;2023-11-18T05:54:44;98388.13;;;5.10;75.99
22181;BME280;11256;50.830;12.834;2023-11-18T05:59:45;98390.81;;;5.10;75.58
22181;BME280;11256;50.830;12.834;2023-11-18T06:04:48;98379.13;;;5.04;76.11
22181;BME280;11256;50.830;12.834;2023-11-18T06:09:49;98387.66;;;5.13;75.74
22181;BME280;11256;50.830;12.834;2023-11-18T06:14:50;98376.31;;;5.11;75.62
22181;BME280;11256;50.830;12.834;2023-11-18T06:19:51;98377.38;;;5.10;75.65
22181;BME280;11256;50.830;12.834;2023-11-18T06:24:51;98352.78;;;4.95;75.62
22181;BME280;11256;50.830;12.834;2023-11-18T06:29:52;98366.34;;;5.00;75.56
22181;BME280;11256;50.830;12.834;2023-11-18T06:34:54;98365.44;;;5.06;75.73
22181;BME280;11256;50.830;12.834;2023-11-18T06:39:55;98383.22;;;5.07;75.76
22181;BME280;11256;50.830;12.834;2023-11-18T06:44:55;98386.34;;;5.04;75.29
22181;BME280;11256;50.830;12.834;2023-11-18T06:49:56;98385.66;;;5.08;75.57
22181;BME280;11256;50.830;12.834;2023-11-18T06:54:56;98373.34;;;5.01;75.70
22181;BME280;11256;50.830;12.834;2023-11-18T06:59:57;98387.53;;;5.08;75.78
22181;BME280;11256;50.830;12.834;2023-11-18T07:04:57;98386.56;;;5.02;75.90
22181;BME280;11256;50.830;12.834;2023-11-18T07:09:58;98392.28;;;5.06;75.73
22181;BME280;11256;50.830;12.834;2023-11-18T07:14:58;98391.03;;;5.08;75.74
22181;BME280;11256;50.830;12.834;2023-11-18T07:20:00;98381.66;;;4.99;75.67
22181;BME280;11256;50.830;12.834;2023-11-18T07:25:00;98407.53;;;5.12;76.02
22181;BME280;11256;50.830;12.834;2023-11-18T07:30:01;98429.94;;;5.17;75.72
22181;BME280;11256;50.830;12.834;2023-11-18T07:35:02;98426.44;;;5.17;75.74
22181;BME280;11256;50.830;12.834;2023-11-18T07:40:04;98428.09;;;5.18;75.46
22181;BME280;11256;50.830;12.834;2023-11-18T07:45:05;98425.28;;;5.24;75.54
22181;BME280;11256;50.830;12.834;2023-11-18T07:50:18;98446.13;;;5.29;75.77
22181;BME280;11256;50.830;12.834;2023-11-18T07:55:19;98444.84;;;5.31;76.16
22181;BME280;11256;50.830;12.834;2023-11-18T08:00:23;98452.22;;;5.36;75.98
22181;BME280;11256;50.830;12.834;2023-11-18T08:05:24;98441.91;;;5.33;75.86
22181;BME280;11256;50.830;12.834;2023-11-18T08:10:25;98451.38;;;5.35;75.71
22181;BME280;11256;50.830;12.834;2023-11-18T08:15:26;98463.69;;;5.43;75.92
22181;BME280;11256;50.830;12.834;2023-11-18T08:20:29;98468.16;;;5.49;75.78
22181;BME280;11256;50.830;12.834;2023-11-18T08:25:31;98475.63;;;5.47;76.21
22181;BME280;11256;50.830;12.834;2023-11-18T08:30:34;98458.44;;;5.48;75.83
22181;BME280;11256;50.830;12.834;2023-11-18T08:35:37;98459.63;;;5.52;76.16
22181;BME280;11256;50.830;12.834;2023-11-18T08:40:38;98474.16;;;5.62;76.13
22181;BME280;11256;50.830;12.834;2023-11-18T08:45:38;98470.78;;;5.67;76.20
22181;BME280;11256;50.830;12.834;2023-11-18T08:50:39;98478.38;;;5.70;75.66
22181;BME280;11256;50.830;12.834;2023-11-18T08:55:44;98467.31;;;5.78;76.27
22181;BME280;11256;50.830;12.834;2023-11-18T09:00:57;98435.38;;;5.70;76.19
22181;BME280;11256;50.830;12.834;2023-11-18T09:06:14;98464.78;;;5.83;76.32
22181;BME280;11256;50.830;12.834;2023-11-18T09:11:28;98477.31;;;5.89;76.29
22181;BME280;11256;50.830;12.834;2023-11-18T09:16:32;98475.88;;;5.98;76.95
22181;BME280;11256;50.830;12.834;2023-11-18T09:21:38;98473.81;;;6.00;76.84
22181;BME280;11256;50.830;12.834;2023-11-18T09:26:41;98466.53;;;6.00;77.48
22181;BME280;11256;50.830;12.834;2023-11-18T09:31:47;98487.88;;;6.13;77.07
22181;BME280;11256;50.830;12.834;2023-11-18T09:36:54;98491.47;;;6.19;76.99
22181;BME280;11256;50.830;12.834;2023-11-18T09:41:57;98486.78;;;6.26;76.75
22181;BME280;11256;50.830;12.834;2023-11-18T09:46:59;98466.69;;;6.17;77.01
22181;BME280;11256;50.830;12.834;2023-11-18T09:52:05;98484.97;;;6.38;77.17
22181;BME280;11256;50.830;12.834;2023-11-18T09:57:31;98493.38;;;6.41;76.43
22181;BME280;11256;50.830;12.834;2023-11-18T10:02:32;98486.59;;;6.39;75.98
22181;BME280;11256;50.830;12.834;2023-11-18T10:07:33;98500.50;;;6.47;76.64
22181;BME280;11256;50.830;12.834;2023-11-18T10:12:37;98492.09;;;6.44;76.06
22181;BME280;11256;50.830;12.834;2023-11-18T10:17:41;98488.91;;;6.47;76.21
22181;BME280;11256;50.830;12.834;2023-11-18T10:23:06;98484.13;;;6.49;76.46
22181;BME280;11256;50.830;12.834;2023-11-18T10:28:27;98477.31;;;6.58;76.54
22181;BME280;11256;50.830;12.834;2023-11-18T10:33:29;98465.59;;;6.64;76.65
22181;BME280;11256;50.830;12.834;2023-11-18T10:38:32;98442.53;;;6.68;78.17
22181;BME280;11256;50.830;12.834;2023-11-18T10:43:36;98438.78;;;6.80;79.71
22181;BME280;11256;50.830;12.834;2023-11-18T10:48:41;98440.00;;;7.01;81.10
22181;BME280;11256;50.830;12.834;2023-11-18T10:53:42;98447.06;;;7.30;81.27
22181;BME280;11256;50.830;12.834;2023-11-18T10:58:55;98446.75;;;7.43;81.39
22181;BME280;11256;50.830;12.834;2023-11-18T11:03:55;98449.09;;;7.67;81.54
22181;BME280;11256;50.830;12.834;2023-11-18T11:08:57;98444.34;;;7.74;81.23
22181;BME280;11256;50.830;12.834;2023-11-18T11:14:02;98455.34;;;8.01;80.57
22181;BME280;11256;50.830;12.834;2023-11-18T11:19:04;98452.22;;;8.09;81.41
22181;BME280;11256;50.830;12.834;2023-11-18T11:24:20;98441.84;;;8.17;80.82
22181;BME280;11256;50.830;12.834;2023-11-18T11:29:32;98444.06;;;8.37;80.96
22181;BME280;11256;50.830;12.834;2023-11-18T11:34:37;98442.53;;;8.62;81.83
22181;BME280;11256;50.830;12.834;2023-11-18T11:39:43;98443.94;;;9.08;82.35
22181;BME280;11256;50.830;12.834;2023-11-18T11:44:48;98428.84;;;9.12;81.47
22181;BME280;11256;50.830;12.834;2023-11-18T11:50:02;98430.19;;;9.36;81.38
22181;BME280;11256;50.830;12.834;2023-11-18T11:55:19;98429.94;;;9.59;80.97
22181;BME280;11256;50.830;12.834;2023-11-18T12:00:24;98412.53;;;10.08;80.87
22181;BME280;11256;50.830;12.834;2023-11-18T12:05:26;98400.88;;;10.49;79.66
22181;BME280;11256;50.830;12.834;2023-11-18T12:10:27;98391.25;;;10.73;78.34
22181;BME280;11256;50.830;12.834;2023-11-18T12:15:53;98385.41;;;10.96;78.11
22181;BME280;11256;50.830;12.834;2023-11-18T12:20:54;98380.91;;;11.36;77.50
22181;BME280;11256;50.830;12.834;2023-11-18T12:25:56;98351.38;;;11.60;76.20
22181;BME280;11256;50.830;12.834;2023-11-18T12:30:58;98344.06;;;11.70;75.53
22181;BME280;11256;50.830;12.834;2023-11-18T12:36:32;98342.13;;;12.16;73.48
22181;BME280;11256;50.830;12.834;2023-11-18T12:41:48;98330.38;;;12.45;72.19
22181;BME280;11256;50.830;12.834;2023-11-18T12:52:21;98328.38;;;12.76;68.34
22181;BME280;11256;50.830;12.834;2023-11-18T12:57:25;98326.31;;;12.43;70.18
22181;BME280;11256;50.830;12.834;2023-11-18T13:02:26;98312.22;;;12.26;70.44
22181;BME280;11256;50.830;12.834;2023-11-18T13:07:26;98295.28;;;12.54;69.19
22181;BME280;11256;50.830;12.834;2023-11-18T13:12:27;98283.94;;;12.32;70.66
22181;BME280;11256;50.830;12.834;2023-11-18T13:17:28;98307.22;;;12.58;67.80
22181;BME280;11256;50.830;12.834;2023-11-18T13:22:30;98327.88;;;12.64;67.65
22181;BME280;11256;50.830;12.834;2023-11-18T13:27:31;98350.66;;;12.73;66.57
22181;BME280;11256;50.830;12.834;2023-11-18T13:32:32;98329.03;;;12.38;67.72
22181;BME280;11256;50.830;12.834;2023-11-18T13:37:33;98338.84;;;12.29;68.22
22181;BME280;11256;50.830;12.834;2023-11-18T13:42:34;98336.13;;;12.19;68.38
22181;BME280;11256;50.830;12.834;2023-11-18T13:47:38;98326.38;;;12.03;68.82
22181;BME280;11256;50.830;12.834;2023-11-18T13:52:38;98314.47;;;11.89;68.36
22181;BME280;11256;50.830;12.834;2023-11-18T13:57:39;98319.38;;;11.82;67.76
22181;BME280;11256;50.830;12.834;2023-11-18T14:02:39;98319.34;;;11.67;68.11
22181;BME280;11256;50.830;12.834;2023-11-18T14:07:40;98319.88;;;11.59;67.84
22181;BME280;11256;50.830;12.834;2023-11-18T14:12:58;98309.00;;;11.49;68.65
22181;BME280;11256;50.830;12.834;2023-11-18T14:17:59;98312.78;;;11.48;68.88
22181;BME280;11256;50.830;12.834;2023-11-18T14:22:59;98304.09;;;11.36;69.36
22181;BME280;11256;50.830;12.834;2023-11-18T14:28:00;98301.94;;;11.28;69.17
22181;BME280;11256;50.830;12.834;2023-11-18T14:33:00;98296.78;;;11.21;69.22
22181;BME280;11256;50.830;12.834;2023-11-18T14:38:01;98274.78;;;11.08;68.85
22181;BME280;11256;50.830;12.834;2023-11-18T14:43:02;98269.59;;;11.01;68.73
22181;BME280;11256;50.830;12.834;2023-11-18T14:48:02;98270.41;;;10.92;69.00
22181;BME280;11256;50.830;12.834;2023-11-18T14:53:03;98264.16;;;10.81;68.99
22181;BME280;11256;50.830;12.834;2023-11-18T14:58:03;98260.31;;;10.72;68.86
22181;BME280;11256;50.830;12.834;2023-11-18T15:03:07;98272.75;;;10.63;69.26
22181;BME280;11256;50.830;12.834;2023-11-18T15:08:07;98263.50;;;10.49;68.88
22181;BME280;11256;50.830;12.834;2023-11-18T15:13:10;98268.63;;;10.41;68.50
22181;BME280;11256;50.830;12.834;2023-11-18T15:18:15;98256.63;;;10.27;68.66
22181;BME280;11256;50.830;12.834;2023-11-18T15:23:18;98237.09;;;10.15;68.74
22181;BME280;11256;50.830;12.834;2023-11-18T15:28:21;98231.84;;;10.03;68.73
22181;BME280;11256;50.830;12.834;2023-11-18T15:33:22;98216.63;;;9.92;68.62
22181;BME280;11256;50.830;12.834;2023-11-18T15:38:23;98230.38;;;9.81;68.45
22181;BME280;11256;50.830;12.834;2023-11-18T15:43:23;98221.63;;;9.69;68.40
22181;BME280;11256;50.830;12.834;2023-11-18T15:48:24;98203.94;;;9.51;68.32
22181;BME280;11256;50.830;12.834;2023-11-18T15:53:26;98210.66;;;9.44;68.10
22181;BME280;11256;50.830;12.834;2023-11-18T15:58:28;98201.91;;;9.32;68.21
22181;BME280;11256;50.830;12.834;2023-11-18T16:03:29;98189.94;;;9.23;68.37
22181;BME280;11256;50.830;12.834;2023-11-18T16:08:30;98169.28;;;9.07;68.17
22181;BME280;11256;50.830;12.834;2023-11-18T16:13:31;98175.66;;;8.96;68.24
22181;BME280;11256;50.830;12.834;2023-11-18T16:18:31;98181.56;;;8.93;68.10
22181;BME280;11256;50.830;12.834;2023-11-18T16:23:32;98177.94;;;8.77;68.07
22181;BME280;11256;50.830;12.834;2023-11-18T16:28:35;98174.91;;;8.69;68.17
22181;BME280;11256;50.830;12.834;2023-11-18T16:33:35;98168.94;;;8.67;68.51
22181;BME280;11256;50.830;12.834;2023-11-18T16:38:35;98161.50;;;8.52;68.29
22181;BME280;11256;50.830;12.834;2023-11-18T16:43:36;98157.34;;;8.40;68.47
22181;BME280;11256;50.830;12.834;2023-11-18T16:48:36;98137.31;;;8.36;68.39
22181;BME280;11256;50.830;12.834;2023-11-18T16:53:37;98162.16;;;8.38;68.66
22181;BME280;11256;50.830;12.834;2023-11-18T16:58:37;98158.84;;;8.31;68.41
22181;BME280;11256;50.830;12.834;2023-11-18T17:03:39;98158.25;;;8.24;68.66
22181;BME280;11256;50.830;12.834;2023-11-18T17:08:40;98159.22;;;8.18;68.57
22181;BME280;11256;50.830;12.834;2023-11-18T17:13:40;98144.22;;;8.05;68.64
22181;BME280;11256;50.830;12.834;2023-11-18T17:18:41;98152.09;;;8.07;68.45
22181;BME280;11256;50.830;12.834;2023-11-18T17:23:41;98149.31;;;8.02;68.90
22181;BME280;11256;50.830;12.834;2023-11-18T17:28:43;98139.72;;;7.89;68.74
22181;BME280;11256;50.830;12.834;2023-11-18T17:33:44;98140.56;;;7.90;68.60
22181;BME280;11256;50.830;12.834;2023-11-18T17:38:46;98125.34;;;7.84;68.46
22181;BME280;11256;50.830;12.834;2023-11-18T17:43:47;98119.94;;;7.79;68.68
22181;BME280;11256;50.830;12.834;2023-11-18T17:48:48;98125.25;;;7.74;68.64
22181;BME280;11256;50.830;12.834;2023-11-18T17:53:48;98104.88;;;7.61;68.49
22181;BME280;11256;50.830;12.834;2023-11-18T17:58:49;98103.97;;;7.56;68.87
22181;BME280;11256;50.830;12.834;2023-11-18T18:03:51;98111.56;;;7.59;68.96
22181;BME280;11256;50.830;12.834;2023-11-18T18:08:51;98103.41;;;7.54;68.64
22181;BME280;11256;50.830;12.834;2023-11-18T18:13:51;98081.72;;;7.44;68.65
22181;BME280;11256;50.830;12.834;2023-11-18T18:18:52;98070.31;;;7.37;68.94
22181;BME280;11256;50.830;12.834;2023-11-18T18:23:52;98061.97;;;7.38;68.83
22181;BME280;11256;50.830;12.834;2023-11-18T18:28:54;98061.03;;;7.28;68.94
22181;BME280;11256;50.830;12.834;2023-11-18T18:33:55;98050.75;;;7.25;69.00
22181;BME280;11256;50.830;12.834;2023-11-18T18:38:55;98066.16;;;7.29;68.94
22181;BME280;11256;50.830;12.834;2023-11-18T18:43:55;98045.63;;;7.23;69.23
22181;BME280;11256;50.830;12.834;2023-11-18T18:48:56;98018.22;;;7.10;69.17
22181;BME280;11256;50.830;12.834;2023-11-18T18:53:57;98012.06;;;7.14;69.17
22181;BME280;11256;50.830;12.834;2023-11-18T18:58:57;98016.91;;;7.12;69.51
22181;BME280;11256;50.830;12.834;2023-11-18T19:03:57;97999.84;;;7.07;69.63
22181;BME280;11256;50.830;12.834;2023-11-18T19:08:58;97993.66;;;7.06;69.72
22181;BME280;11256;50.830;12.834;2023-11-18T19:13:59;97991.69;;;7.02;69.52
22181;BME280;11256;50.830;12.834;2023-11-18T19:19:00;97979.81;;;6.98;69.83
22181;BME280;11256;50.830;12.834;2023-11-18T19:24:00;97995.66;;;6.94;69.65
22181;BME280;11256;50.830;12.834;2023-11-18T19:29:00;97991.59;;;6.92;69.84
22181;BME280;11256;50.830;12.834;2023-11-18T19:34:01;97978.78;;;6.82;69.56
22181;BME280;11256;50.830;12.834;2023-11-18T19:39:01;97982.13;;;6.89;69.57
22181;BME280;11256;50.830;12.834;2023-11-18T19:44:03;97961.91;;;6.87;69.71
22181;BME280;11256;50.830;12.834;2023-11-18T19:49:04;97953.22;;;6.85;69.85
22181;BME280;11256;50.830;12.834;2023-11-18T19:54:05;97944.28;;;6.79;69.63
22181;BME280;11256;50.830;12.834;2023-11-18T19:59:05;97940.69;;;6.74;69.92
22181;BME280;11256;50.830;12.834;2023-11-18T20:04:06;97927.00;;;6.75;70.03
22181;BME280;11256;50.830;12.834;2023-11-18T20:09:06;97917.47;;;6.68;69.33
22181;BME280;11256;50.830;12.834;2023-11-18T20:14:07;97920.75;;;6.70;70.16
22181;BME280;11256;50.830;12.834;2023-11-18T20:19:08;97911.00;;;6.69;70.26
22181;BME280;11256;50.830;12.834;2023-11-18T20:24:09;97911.00;;;6.69;70.01
22181;BME280;11256;50.830;12.834;2023-11-18T20:29:10;97905.06;;;6.67;70.05
22181;BME280;11256;50.830;12.834;2023-11-18T20:34:10;97889.94;;;6.61;70.62
22181;BME280;11256;50.830;12.834;2023-11-18T20:39:11;97907.78;;;6.67;70.42
22181;BME280;11256;50.830;12.834;2023-11-18T20:44:17;97880.22;;;6.60;70.74
22181;BME280;11256;50.830;12.834;2023-11-18T20:49:18;97904.06;;;6.73;70.72
22181;BME280;11256;50.830;12.834;2023-11-18T20:54:18;97860.38;;;6.66;70.44
22181;BME280;11256;50.830;12.834;2023-11-18T20:59:18;97869.31;;;6.71;70.73
22181;BME280;11256;50.830;12.834;2023-11-18T21:04:20;97860.75;;;6.74;70.46
22181;BME280;11256;50.830;12.834;2023-11-18T21:09:20;97837.47;;;6.63;71.01
22181;BME280;11256;50.830;12.834;2023-11-18T21:14:21;97844.28;;;6.71;71.14
22181;BME280;11256;50.830;12.834;2023-11-18T21:19:22;97838.91;;;6.71;71.20
22181;BME280;11256;50.830;12.834;2023-11-18T21:24:23;97850.69;;;6.65;70.53
22181;BME280;11256;50.830;12.834;2023-11-18T21:29:23;97831.31;;;6.68;71.23
22181;BME280;11256;50.830;12.834;2023-11-18T21:34:24;97805.66;;;6.60;71.54
22181;BME280;11256;50.830;12.834;2023-11-18T21:39:24;97795.63;;;6.56;70.93
22181;BME280;11256;50.830;12.834;2023-11-18T21:44:26;97783.31;;;6.60;70.98
22181;BME280;11256;50.830;12.834;2023-11-18T21:49:26;97793.78;;;6.56;70.79
22181;BME280;11256;50.830;12.834;2023-11-18T21:54:27;97777.81;;;6.50;71.56
22181;BME280;11256;50.830;12.834;2023-11-18T21:59:30;97783.97;;;6.45;72.02
22181;BME280;11256;50.830;12.834;2023-11-18T22:04:30;97770.06;;;6.32;72.33
22181;BME280;11256;50.830;12.834;2023-11-18T22:09:31;97743.66;;;6.29;72.32
22181;BME280;11256;50.830;12.834;2023-11-18T22:14:32;97746.91;;;6.31;72.87
22181;BME280;11256;50.830;12.834;2023-11-18T22:19:33;97729.00;;;6.20;73.03
22181;BME280;11256;50.830;12.834;2023-11-18T22:24:35;97710.63;;;6.12;72.81
22181;BME280;11256;50.830;12.834;2023-11-18T22:29:36;97728.41;;;6.13;74.43
22181;BME280;11256;50.830;12.834;2023-11-18T22:34:37;97715.78;;;6.13;72.36
22181;BME280;11256;50.830;12.834;2023-11-18T22:39:38;97704.13;;;6.08;72.96
22181;BME280;11256;50.830;12.834;2023-11-18T22:44:39;97686.38;;;6.07;73.71
22181;BME280;11256;50.830;12.834;2023-11-18T22:49:45;97683.63;;;6.02;73.65
22181;BME280;11256;50.830;12.834;2023-11-18T22:54:45;97673.88;;;5.96;73.67
22181;BME280;11256;50.830;12.834;2023-11-18T22:59:46;97674.34;;;5.93;73.16
22181;BME280;11256;50.830;12.834;2023-11-18T23:04:46;97638.84;;;5.91;74.66
22181;BME280;11256;50.830;12.834;2023-11-18T23:09:47;97633.19;;;5.87;74.80
22181;BME280;11256;50.830;12.834;2023-11-18T23:14:47;97599.78;;;5.83;75.44
22181;BME280;11256;50.830;12.834;2023-11-18T23:19:52;97594.56;;;5.77;74.71
22181;BME280;11256;50.830;12.834;2023-11-18T23:24:52;97574.13;;;5.76;74.33
22181;BME280;11256;50.830;12.834;2023-11-18T23:29:53;97544.25;;;5.72;74.84
22181;BME280;11256;50.830;12.834;2023-11-18T23:34:53;97540.72;;;5.67;74.89
22181;BME280;11256;50.830;12.834;2023-11-18T23:39:53;97516.19;;;5.58;75.67
22181;BME280;11256;50.830;12.834;2023-11-18T23:44:54;97504.59;;;5.58;74.28
22181;BME280;11256;50.830;12.834;2023-11-18T23:49:55;97490.63;;;5.56;74.60
22181;BME280;11256;50.830;12.834;2023-11-18T23:54:57;97478.22;;;5.55;74.82
22181;BME280;11256;50.830;12.834;2023-11-18T23:59:57;97462.56;;;5.47;74.94
